createdAt,value
2023-02-11T00:00:59.256Z,25.60
2023-02-11T00:03:26.284Z,27.25
2023-02-11T00:06:05.343Z,26.55
2023-02-11T00:08:31.962Z,26.33
2023-02-11T00:10:58.992Z,24.52
2023-02-11T00:13:25.908Z,24.30
2023-02-11T00:15:52.885Z,25.50
2023-02-11T00:18:19.483Z,23.70
2023-02-11T00:20:46.443Z,24.48
2023-02-11T00:23:13.394Z,22.98
2023-02-11T00:25:42.265Z,24.67
2023-02-11T00:28:09.881Z,24.15
2023-02-11T00:30:36.798Z,23.02
2023-02-11T00:33:03.932Z,23.02
2023-02-11T00:35:32.300Z,19.92
2023-02-11T00:38:00.328Z,23.85
2023-02-11T00:40:27.300Z,20.75
2023-02-11T00:42:53.804Z,23.63
2023-02-11T00:45:21.217Z,23.90
2023-02-11T00:47:48.167Z,22.08
2023-02-11T00:50:14.998Z,22.67
2023-02-11T00:52:41.622Z,19.75
2023-02-11T00:55:09.032Z,19.20
2023-02-11T00:57:35.753Z,18.77
2023-02-11T01:00:02.968Z,21.05
2023-02-11T01:02:29.565Z,19.63
2023-02-11T01:04:56.179Z,19.05
2023-02-11T01:07:23.358Z,21.83
2023-02-11T01:09:49.895Z,22.48
2023-02-11T01:12:16.501Z,21.50
2023-02-11T01:14:43.786Z,18.77
2023-02-11T01:17:11.290Z,20.35
2023-02-11T01:19:38.213Z,18.17
2023-02-11T01:22:06.586Z,19.92
2023-02-11T01:24:33.322Z,16.83
2023-02-11T01:26:59.903Z,18.67
2023-02-11T01:29:26.418Z,19.67
2023-02-11T01:31:54.501Z,17.80
2023-02-11T01:34:21.073Z,20.77
2023-02-11T01:36:47.682Z,16.33
2023-02-11T01:39:14.251Z,16.98
2023-02-11T01:41:40.774Z,15.73
2023-02-11T01:44:42.735Z,18.23
2023-02-11T01:47:09.559Z,18.20
2023-02-11T01:49:43.742Z,19.27
2023-02-11T01:52:18.999Z,17.58
2023-02-11T01:55:19.370Z,19.52
2023-02-11T01:57:51.950Z,17.35
2023-02-11T02:00:30.017Z,17.65
2023-02-11T02:03:20.118Z,21.17
2023-02-11T02:05:53.876Z,19.35
2023-02-11T02:08:42.276Z,15.43
2023-02-11T02:11:09.184Z,21.42
2023-02-11T02:13:37.527Z,17.05
2023-02-11T02:16:09.657Z,22.20
2023-02-11T02:18:55.200Z,20.83
2023-02-11T02:21:49.718Z,19.55
2023-02-11T02:24:56.502Z,16.27
2023-02-11T02:27:30.667Z,20.67
2023-02-11T02:30:16.380Z,21.27
2023-02-11T02:33:21.670Z,20.38
2023-02-11T02:36:18.150Z,20.13
2023-02-11T02:38:57.443Z,19.70
2023-02-11T02:41:28.475Z,19.08
2023-02-11T02:43:55.463Z,19.37
2023-02-11T02:46:25.022Z,19.90
2023-02-11T02:48:53.128Z,20.83
2023-02-11T02:51:55.115Z,18.33
2023-02-11T02:54:50.996Z,21.33
2023-02-11T02:57:47.118Z,19.75
2023-02-11T03:00:25.776Z,20.55
2023-02-11T03:03:19.818Z,19.13
2023-02-11T03:05:49.716Z,18.40
2023-02-11T03:08:24.312Z,19.73
2023-02-11T03:10:53.611Z,23.02
2023-02-11T03:13:33.745Z,20.35
2023-02-11T03:16:08.249Z,21.55
2023-02-11T03:18:39.639Z,20.92
2023-02-11T03:21:09.719Z,21.42
2023-02-11T03:23:49.859Z,20.75
2023-02-11T03:26:16.289Z,17.48
2023-02-11T03:28:54.909Z,23.42
2023-02-11T03:31:58.877Z,18.77
2023-02-11T03:34:33.375Z,20.00
2023-02-11T03:37:15.016Z,20.45
2023-02-11T03:39:47.562Z,22.83
2023-02-11T03:42:16.269Z,20.20
2023-02-11T03:44:52.551Z,23.85
2023-02-11T03:47:23.596Z,19.70
2023-02-11T03:49:53.332Z,19.00
2023-02-11T03:52:23.203Z,19.05
2023-02-11T03:54:55.326Z,24.08
2023-02-11T03:57:21.913Z,21.55
2023-02-11T03:59:54.380Z,18.88
2023-02-11T04:02:25.213Z,19.55
2023-02-11T04:04:51.820Z,21.10
2023-02-11T04:07:18.446Z,20.05
2023-02-11T04:09:44.992Z,19.80
2023-02-11T04:12:11.832Z,20.33
2023-02-11T04:14:38.707Z,17.10
2023-02-11T04:17:05.540Z,19.17
2023-02-11T04:19:32.329Z,19.33
2023-02-11T04:21:58.923Z,20.50
2023-02-11T04:24:25.508Z,21.98
2023-02-11T04:26:52.651Z,17.05
2023-02-11T04:29:19.552Z,19.42
2023-02-11T04:31:46.286Z,20.60
2023-02-11T04:34:12.826Z,22.85
2023-02-11T04:36:39.431Z,18.90
2023-02-11T04:39:06.494Z,19.05
2023-02-11T04:41:33.311Z,17.70
2023-02-11T04:43:59.835Z,22.25
2023-02-11T04:46:26.473Z,20.73
2023-02-11T04:48:53.225Z,25.13
2023-02-11T04:51:19.780Z,25.42
2023-02-11T04:53:46.321Z,21.17
2023-02-11T04:56:12.848Z,19.40
2023-02-11T04:58:39.518Z,26.35
2023-02-11T05:01:11.383Z,22.63
2023-02-11T05:06:05.688Z,21.88
2023-02-11T05:08:32.283Z,20.10
2023-02-11T05:10:59.523Z,23.63
2023-02-11T05:13:26.084Z,21.27
2023-02-11T05:15:53.123Z,20.42
2023-02-11T05:18:19.821Z,23.85
2023-02-11T05:20:46.324Z,22.58
2023-02-11T05:23:12.877Z,22.92
2023-02-11T05:25:39.370Z,21.65
2023-02-11T05:28:06.681Z,21.88
2023-02-11T05:30:33.309Z,24.35
2023-02-11T05:32:59.856Z,22.98
2023-02-11T05:35:26.404Z,25.60
2023-02-11T05:37:53.044Z,22.83
2023-02-11T05:40:19.650Z,26.70
2023-02-11T05:42:46.188Z,23.52
2023-02-11T05:45:12.752Z,24.30
2023-02-11T05:47:39.309Z,25.08
2023-02-11T05:50:06.173Z,26.38
2023-02-11T05:52:32.919Z,24.50
2023-02-11T05:54:59.588Z,26.40
2023-02-11T05:57:26.078Z,27.45
2023-02-11T05:59:52.626Z,26.55
2023-02-11T06:02:19.149Z,27.77
2023-02-11T06:04:45.635Z,29.65
2023-02-11T06:07:12.268Z,28.33
2023-02-11T06:09:38.928Z,30.10
2023-02-11T06:12:05.690Z,28.80
2023-02-11T06:14:34.182Z,30.27
2023-02-11T06:17:01.358Z,32.10
2023-02-11T06:19:27.955Z,30.98
2023-02-11T06:21:56.174Z,31.13
2023-02-11T06:24:47.798Z,34.28
2023-02-11T06:27:09.484Z,32.03
2023-02-11T06:29:37.187Z,33.17
2023-02-11T06:32:04.353Z,35.10
2023-02-11T06:34:31.009Z,33.08
2023-02-11T06:36:57.544Z,33.50
2023-02-11T06:39:24.075Z,34.35
2023-02-11T06:41:50.576Z,34.05
2023-02-11T06:44:17.154Z,34.17
2023-02-11T06:46:43.749Z,37.78
2023-02-11T06:49:10.455Z,35.50
2023-02-11T06:51:37.053Z,36.70
2023-02-11T06:54:05.561Z,38.22
2023-02-11T06:56:32.755Z,38.08
2023-02-11T06:58:59.443Z,38.08
2023-02-11T07:01:27.595Z,38.53
2023-02-11T07:03:54.683Z,39.42
2023-02-11T07:06:24.799Z,40.42
2023-02-11T07:08:51.418Z,35.60
2023-02-11T07:11:20.573Z,38.47
2023-02-11T07:13:47.609Z,40.88
2023-02-11T07:16:16.047Z,39.35
2023-02-11T07:18:43.032Z,41.80
2023-02-11T07:21:12.257Z,42.33
2023-02-11T07:23:40.759Z,39.28
2023-02-11T07:26:09.852Z,43.15
2023-02-11T07:28:40.012Z,41.70
2023-02-11T07:31:10.893Z,43.58
2023-02-11T07:33:37.843Z,46.70
2023-02-11T07:36:06.085Z,43.42
2023-02-11T07:38:34.305Z,44.25
2023-02-11T07:41:02.177Z,45.65
2023-02-11T07:43:28.842Z,47.05
2023-02-11T07:45:55.377Z,47.55
2023-02-11T07:48:21.858Z,49.08
2023-02-11T07:50:48.381Z,51.00
2023-02-11T07:53:14.918Z,51.50
2023-02-11T07:55:43.151Z,48.70
2023-02-11T07:58:09.722Z,45.55
2023-02-11T08:00:36.375Z,46.20
2023-02-11T08:03:03.678Z,49.92
2023-02-11T08:05:30.494Z,48.17
2023-02-11T08:07:56.996Z,46.75
2023-02-11T08:10:23.464Z,53.10
2023-02-11T08:12:50.011Z,49.10
2023-02-11T08:15:16.575Z,51.38
2023-02-11T08:17:43.145Z,49.20
2023-02-11T08:20:10.158Z,51.55
2023-02-11T08:22:36.788Z,51.83
2023-02-11T08:25:03.394Z,53.83
2023-02-11T08:27:29.994Z,51.42
2023-02-11T08:29:56.608Z,51.78
2023-02-11T08:32:25.428Z,55.47
2023-02-11T08:34:52.882Z,52.42
2023-02-11T08:37:19.977Z,54.55
2023-02-11T08:39:47.292Z,51.17
2023-02-11T08:42:15.542Z,53.83
2023-02-11T08:44:43.181Z,55.72
2023-02-11T08:47:09.848Z,52.65
2023-02-11T08:49:36.529Z,52.17
2023-02-11T08:52:04.189Z,55.38
2023-02-11T08:54:31.395Z,50.08
2023-02-11T08:56:58.114Z,56.50
2023-02-11T08:59:24.628Z,54.47
2023-02-11T09:01:51.386Z,50.53
2023-02-11T09:04:17.984Z,55.45
2023-02-11T09:06:44.618Z,56.25
2023-02-11T09:09:13.514Z,56.58
2023-02-11T09:11:41.388Z,53.10
2023-02-11T09:14:08.532Z,57.63
2023-02-11T09:16:36.532Z,59.83
2023-02-11T09:19:04.883Z,54.00
2023-02-11T09:21:31.783Z,55.40
2023-02-11T09:23:58.351Z,56.40
2023-02-11T09:26:30.900Z,55.97
2023-02-11T09:28:58.251Z,55.38
2023-02-11T09:31:26.839Z,52.45
2023-02-11T09:33:56.875Z,58.63
2023-02-11T09:36:26.709Z,53.47
2023-02-11T09:38:53.552Z,51.67
2023-02-11T09:41:22.932Z,55.78
2023-02-11T09:43:56.203Z,53.75
2023-02-11T09:46:24.770Z,51.75
2023-02-11T09:48:54.509Z,54.15
2023-02-11T09:51:41.191Z,55.10
2023-02-11T09:54:18.296Z,53.88
2023-02-11T09:56:44.821Z,52.72
2023-02-11T09:59:16.484Z,53.28
2023-02-11T10:02:14.262Z,56.22
2023-02-11T10:05:19.539Z,58.05
2023-02-11T10:08:16.842Z,53.40
2023-02-11T10:10:58.741Z,58.13
2023-02-11T10:13:33.286Z,54.88
2023-02-11T10:16:11.713Z,57.70
2023-02-11T10:19:19.204Z,54.47
2023-02-11T10:21:51.538Z,55.40
2023-02-11T10:24:19.008Z,60.83
2023-02-11T10:26:46.330Z,56.70
2023-02-11T10:29:38.552Z,58.53
2023-02-11T10:34:41.688Z,57.33
2023-02-11T10:37:12.935Z,58.08
2023-02-11T10:39:41.142Z,58.05
2023-02-11T10:42:12.139Z,57.78
2023-02-11T10:45:00.802Z,58.37
2023-02-11T10:47:36.691Z,55.42
2023-02-11T10:50:33.402Z,55.85
2023-02-11T10:53:21.068Z,58.20
2023-02-11T10:55:53.727Z,54.63
2023-02-11T10:58:26.592Z,54.85
2023-02-11T11:00:55.373Z,56.35
2023-02-11T11:03:25.332Z,60.22
2023-02-11T11:06:00.808Z,59.72
2023-02-11T11:08:51.148Z,52.65
2023-02-11T11:11:20.618Z,54.30
2023-02-11T11:13:52.846Z,58.05
2023-02-11T11:16:26.403Z,60.78
2023-02-11T11:19:15.386Z,56.15
2023-02-11T11:21:47.548Z,54.35
2023-02-11T11:24:27.826Z,57.42
2023-02-11T11:26:59.468Z,60.80
2023-02-11T11:29:35.767Z,54.22
2023-02-11T11:32:07.117Z,57.00
2023-02-11T11:34:40.532Z,52.78
2023-02-11T11:37:13.551Z,52.85
2023-02-11T11:39:40.639Z,51.65
2023-02-11T11:42:28.358Z,51.40
2023-02-11T11:45:04.560Z,55.10
2023-02-11T11:47:44.960Z,50.78
2023-02-11T11:50:27.056Z,48.70
2023-02-11T11:56:14.184Z,48.10
2023-02-11T11:58:41.154Z,52.05
2023-02-11T12:01:24.975Z,51.03
2023-02-11T12:04:09.425Z,53.97
2023-02-11T12:07:06.993Z,50.65
2023-02-11T12:10:04.494Z,48.50
2023-02-11T12:12:46.959Z,50.78
2023-02-11T12:15:31.880Z,49.25
2023-02-11T12:18:19.986Z,47.30
2023-02-11T12:21:10.790Z,49.40
2023-02-11T12:23:50.249Z,49.03
2023-02-11T12:26:20.675Z,49.63
2023-02-11T12:29:13.389Z,50.72
2023-02-11T12:32:15.577Z,46.58
2023-02-11T12:37:45.703Z,46.63
2023-02-11T12:40:46.789Z,53.50
2023-02-11T12:43:25.094Z,50.30
2023-02-11T12:46:07.200Z,44.78
2023-02-11T12:49:11.995Z,45.53
2023-02-11T12:51:41.358Z,46.40
2023-02-11T12:54:49.802Z,45.85
2023-02-11T12:57:26.202Z,46.13
2023-02-11T13:00:14.877Z,41.47
2023-02-11T13:02:49.295Z,43.38
2023-02-11T13:05:27.072Z,41.20
2023-02-11T13:07:59.212Z,41.85
2023-02-11T13:10:41.535Z,42.05
2023-02-11T13:13:20.984Z,38.38
2023-02-11T13:15:51.997Z,38.05
2023-02-11T13:19:00.271Z,40.70
2023-02-11T13:21:34.830Z,39.13
2023-02-11T13:24:08.000Z,40.22
2023-02-11T13:27:11.544Z,40.00
2023-02-11T13:30:21.363Z,40.45
2023-02-11T13:32:53.882Z,39.75
2023-02-11T13:35:33.877Z,39.17
2023-02-11T13:38:03.120Z,38.50
2023-02-11T13:40:34.202Z,39.53
2023-02-11T13:43:03.365Z,41.95
2023-02-11T13:45:47.567Z,36.85
2023-02-11T13:48:27.466Z,36.45
2023-02-11T13:50:58.205Z,39.50
2023-02-11T13:53:25.889Z,37.75
2023-02-11T13:56:07.653Z,35.88
2023-02-11T13:58:39.753Z,35.42
2023-02-11T14:01:07.789Z,35.17
2023-02-11T14:04:09.386Z,34.50
2023-02-11T14:06:54.299Z,34.90
2023-02-11T14:09:20.790Z,36.10
2023-02-11T14:12:09.186Z,32.67
2023-02-11T14:15:10.715Z,32.63
2023-02-11T14:17:37.312Z,36.20
2023-02-11T14:20:24.643Z,35.05
2023-02-11T14:22:53.429Z,36.22
2023-02-11T14:25:25.625Z,32.22
2023-02-11T14:28:34.834Z,34.85
2023-02-11T14:31:12.952Z,38.00
2023-02-11T14:33:52.331Z,35.22
2023-02-11T14:36:46.158Z,34.42
2023-02-11T14:39:24.187Z,33.65
2023-02-11T14:41:51.144Z,31.98
2023-02-11T14:44:23.224Z,33.40
2023-02-11T14:46:53.306Z,36.30
2023-02-11T14:49:33.467Z,33.30
2023-02-11T14:52:13.706Z,32.00
2023-02-11T14:54:43.161Z,34.92
2023-02-11T14:57:17.360Z,31.98
2023-02-11T15:00:02.308Z,33.45
2023-02-11T15:02:34.900Z,32.10
2023-02-11T15:05:23.700Z,29.02
2023-02-11T15:07:56.957Z,30.23
2023-02-11T15:10:37.357Z,33.67
2023-02-11T15:13:05.391Z,33.65
2023-02-11T15:15:33.130Z,34.33
2023-02-11T15:18:02.822Z,34.03
2023-02-11T15:20:32.367Z,33.05
2023-02-11T15:23:05.898Z,31.70
2023-02-11T15:25:34.265Z,33.00
2023-02-11T15:28:01.075Z,32.55
2023-02-11T15:30:34.144Z,31.70
2023-02-11T15:33:03.569Z,33.75
2023-02-11T15:35:34.919Z,34.60
2023-02-11T15:38:01.488Z,30.67
2023-02-11T15:40:32.398Z,36.28
2023-02-11T15:43:02.857Z,34.53
2023-02-11T15:45:42.037Z,32.88
2023-02-11T15:48:21.316Z,35.70
2023-02-11T15:50:58.687Z,33.83
2023-02-11T15:53:43.272Z,34.42
2023-02-11T15:56:43.001Z,35.05
2023-02-11T15:59:17.280Z,32.95
2023-02-11T16:01:45.520Z,32.35
2023-02-11T16:04:25.198Z,30.95
2023-02-11T16:06:53.221Z,30.67
2023-02-11T16:09:19.739Z,32.45
2023-02-11T16:11:46.235Z,34.58
2023-02-11T16:14:39.316Z,36.13
2023-02-11T16:17:25.749Z,35.15
2023-02-11T16:19:53.554Z,37.17
2023-02-11T16:22:26.251Z,35.08
2023-02-11T16:24:55.152Z,33.60
2023-02-11T16:27:33.961Z,35.55
2023-02-11T16:30:00.539Z,33.08
2023-02-11T16:32:29.077Z,35.55
2023-02-11T16:34:58.350Z,32.90
2023-02-11T16:37:25.573Z,31.15
2023-02-11T16:39:56.663Z,32.83
2023-02-11T16:42:23.435Z,31.60
2023-02-11T16:44:50.034Z,33.58
2023-02-11T16:47:25.784Z,34.40
2023-02-11T16:49:52.709Z,34.10
2023-02-11T16:52:21.716Z,33.95
2023-02-11T16:54:48.465Z,33.47
2023-02-11T16:57:18.442Z,35.10
2023-02-11T16:59:45.941Z,33.75
2023-02-11T17:02:29.279Z,38.58
2023-02-11T17:04:58.684Z,35.50
2023-02-11T17:07:25.458Z,32.53
2023-02-11T17:09:52.169Z,34.75
2023-02-11T17:12:19.357Z,32.85
2023-02-11T17:14:45.847Z,33.97
2023-02-11T17:17:13.362Z,36.15
2023-02-11T17:19:40.017Z,36.55
2023-02-11T17:22:06.788Z,35.50
2023-02-11T17:24:33.327Z,34.42
2023-02-11T17:26:59.940Z,34.55
2023-02-11T17:29:27.069Z,35.40
2023-02-11T17:31:53.723Z,37.05
2023-02-11T17:34:21.613Z,36.92
2023-02-11T17:36:48.460Z,35.38
2023-02-11T17:39:15.223Z,39.20
2023-02-11T17:41:41.993Z,34.47
2023-02-11T17:44:10.413Z,34.78
2023-02-11T17:46:36.935Z,34.17
2023-02-11T17:49:04.310Z,32.60
2023-02-11T17:51:34.836Z,34.88
2023-02-11T17:54:04.759Z,37.67
2023-02-11T17:56:36.263Z,33.97
2023-02-11T17:59:04.173Z,37.97
2023-02-11T18:01:32.241Z,36.75
2023-02-11T18:03:59.053Z,35.78
2023-02-11T18:06:26.700Z,33.28
2023-02-11T18:08:56.829Z,36.08
2023-02-11T18:11:25.145Z,34.57
2023-02-11T18:13:54.432Z,37.60
2023-02-11T18:16:22.182Z,33.80
2023-02-11T18:18:49.742Z,34.78
2023-02-11T18:21:19.234Z,33.55
2023-02-11T18:23:46.357Z,33.13
2023-02-11T18:26:14.967Z,32.15
2023-02-11T18:28:45.311Z,30.60
2023-02-11T18:31:13.727Z,37.17
2023-02-11T18:33:41.094Z,33.78
2023-02-11T18:36:10.612Z,36.58
2023-02-11T18:38:37.592Z,28.77
2023-02-11T18:41:04.730Z,31.40
2023-02-11T18:43:34.439Z,33.25
2023-02-11T18:46:03.130Z,32.65
2023-02-11T18:48:29.754Z,30.55
2023-02-11T18:50:56.482Z,31.15
2023-02-11T18:53:24.694Z,31.33
2023-02-11T18:55:52.715Z,30.00
2023-02-11T18:58:21.127Z,31.92
2023-02-11T19:00:48.549Z,31.48
2023-02-11T19:03:15.365Z,30.98
2023-02-11T19:05:42.671Z,30.73
2023-02-11T19:08:09.512Z,30.17
2023-02-11T19:10:39.981Z,29.48
2023-02-11T19:13:06.512Z,29.00
2023-02-11T19:15:33.074Z,29.70
2023-02-11T19:17:59.598Z,26.73
2023-02-11T19:20:26.095Z,28.48
2023-02-11T19:22:52.639Z,31.70
2023-02-11T19:25:19.343Z,81.15
2023-02-11T19:27:45.924Z,29.95
2023-02-11T19:30:12.687Z,28.20
2023-02-11T19:32:39.244Z,28.55
2023-02-11T19:35:06.345Z,31.13
2023-02-11T19:37:32.865Z,24.80
2023-02-11T19:39:59.425Z,24.48
2023-02-11T19:42:27.661Z,25.35
2023-02-11T19:44:54.321Z,23.30
2023-02-11T19:47:27.459Z,24.45
2023-02-11T19:49:54.378Z,25.08
2023-02-11T19:52:20.962Z,28.83
2023-02-11T19:54:47.484Z,29.02
2023-02-11T19:57:14.067Z,30.02
2023-02-11T19:59:40.558Z,34.15
2023-02-11T20:02:07.446Z,32.63
2023-02-11T20:04:34.024Z,28.17
2023-02-11T20:07:00.596Z,29.95
2023-02-11T20:09:28.985Z,31.35
2023-02-11T20:11:55.532Z,34.85
2023-02-11T20:14:22.185Z,29.95
2023-02-11T20:16:50.107Z,28.92
2023-02-11T20:19:19.252Z,26.88
2023-02-11T20:21:48.430Z,28.15
2023-02-11T20:24:17.321Z,26.38
2023-02-11T20:26:45.164Z,27.30
2023-02-11T20:29:12.386Z,25.38
2023-02-11T20:31:39.064Z,25.92
2023-02-11T20:34:05.773Z,29.85
2023-02-11T20:36:35.586Z,28.55
2023-02-11T20:39:04.832Z,26.20
2023-02-11T20:41:36.425Z,29.25
2023-02-11T20:44:06.290Z,29.40
2023-02-11T20:46:34.376Z,29.38
2023-02-11T20:49:01.694Z,29.27
2023-02-11T20:51:31.481Z,28.83
2023-02-11T20:53:58.435Z,28.48
2023-02-11T20:56:30.592Z,27.48
2023-02-11T20:58:58.613Z,28.27
2023-02-11T21:01:31.403Z,28.30
2023-02-11T21:04:03.587Z,28.38
2023-02-11T21:06:35.835Z,27.58
2023-02-11T21:09:04.341Z,29.10
2023-02-11T21:11:31.354Z,28.52
2023-02-11T21:13:58.341Z,26.58
2023-02-11T21:16:24.997Z,28.48
2023-02-11T21:18:52.208Z,28.50
2023-02-11T21:21:19.543Z,28.27
2023-02-11T21:23:46.268Z,29.13
2023-02-11T21:26:14.083Z,28.27
2023-02-11T21:28:41.433Z,28.20
2023-02-11T21:31:08.404Z,28.60
2023-02-11T21:33:35.165Z,29.55
2023-02-11T21:36:04.633Z,32.92
2023-02-11T21:38:31.360Z,30.48
2023-02-11T21:41:03.963Z,27.55
2023-02-11T21:43:30.554Z,29.63
2023-02-11T21:45:57.392Z,29.67
2023-02-11T21:48:25.631Z,29.70
2023-02-11T21:50:53.293Z,27.90
2023-02-11T21:53:19.842Z,29.17
2023-02-11T21:55:46.432Z,26.52
2023-02-11T21:58:13.080Z,26.77
2023-02-11T22:00:39.661Z,29.10
2023-02-11T22:03:06.373Z,27.15
2023-02-11T22:05:32.951Z,26.73
2023-02-11T22:07:59.522Z,26.55
2023-02-11T22:10:26.155Z,25.58
2023-02-11T22:12:52.748Z,25.35
2023-02-11T22:15:19.692Z,24.65
2023-02-11T22:17:46.277Z,25.42
2023-02-11T22:20:12.881Z,27.88
2023-02-11T22:22:39.431Z,24.08
2023-02-11T22:25:06.367Z,25.15
2023-02-11T22:27:33.052Z,26.55
2023-02-11T22:29:59.601Z,24.75
2023-02-11T22:32:26.286Z,22.08
2023-02-11T22:34:53.509Z,22.40
2023-02-11T22:37:20.442Z,24.40
2023-02-11T22:39:47.024Z,22.20
2023-02-11T22:42:13.579Z,21.00
2023-02-11T22:44:40.142Z,21.38
2023-02-11T22:47:06.775Z,23.30
2023-02-11T22:49:33.647Z,21.50
2023-02-11T22:52:00.375Z,21.48
2023-02-11T22:54:27.168Z,21.20
2023-02-11T22:56:53.674Z,20.13
2023-02-11T22:59:21.681Z,22.27
2023-02-11T23:01:48.391Z,21.08
2023-02-11T23:04:16.894Z,20.05
2023-02-11T23:06:43.484Z,19.33
2023-02-11T23:09:12.340Z,20.20
2023-02-11T23:11:39.640Z,19.65
2023-02-11T23:14:08.533Z,20.13
2023-02-11T23:16:35.328Z,18.77
2023-02-11T23:19:06.216Z,19.23
2023-02-11T23:21:35.290Z,19.73
2023-02-11T23:24:22.052Z,20.25
2023-02-11T23:26:48.654Z,22.17
2023-02-11T23:29:15.291Z,19.58
2023-02-11T23:31:45.871Z,21.08
2023-02-11T23:34:17.103Z,19.10
2023-02-11T23:36:44.380Z,19.70
2023-02-11T23:39:15.235Z,18.48
2023-02-11T23:41:41.770Z,18.75
2023-02-11T23:44:09.878Z,18.63
2023-02-11T23:46:36.537Z,19.73
2023-02-11T23:49:03.520Z,17.77
2023-02-11T23:51:30.322Z,17.88
2023-02-11T23:53:56.860Z,17.65
2023-02-11T23:56:26.522Z,17.52
2023-02-11T23:58:55.546Z,18.40
